sensor_id;sensor_type;location;lat;lon;timestamp;P1;durP1;ratioP1;P2;durP2;ratioP2
6987;SDS011;3534;49.960;8.018;2023-04-03T00:00:19;6.80;;;3.17;;
6987;SDS011;3534;49.960;8.018;2023-04-03T00:02:46;4.43;;;2.93;;
6987;SDS011;3534;49.960;8.018;2023-04-03T00:05:14;4.33;;;3.17;;
6987;SDS011;3534;49.960;8.018;2023-04-03T00:07:41;4.43;;;2.60;;
6987;SDS011;3534;49.960;8.018;2023-04-03T00:10:08;5.07;;;2.90;;
6987;SDS011;3534;49.960;8.018;2023-04-03T00:12:35;3.50;;;2.83;;
6987;SDS011;3534;49.960;8.018;2023-04-03T00:15:01;4.23;;;2.87;;
6987;SDS011;3534;49.960;8.018;2023-04-03T00:17:28;5.40;;;2.80;;
6987;SDS011;3534;49.960;8.018;2023-04-03T00:19:55;3.60;;;2.00;;
6987;SDS011;3534;49.960;8.018;2023-04-03T00:22:23;4.73;;;2.20;;
6987;SDS011;3534;49.960;8.018;2023-04-03T00:24:51;3.40;;;2.60;;
6987;SDS011;3534;49.960;8.018;2023-04-03T00:27:18;4.07;;;2.80;;
6987;SDS011;3534;49.960;8.018;2023-04-03T00:29:44;3.37;;;2.77;;
6987;SDS011;3534;49.960;8.018;2023-04-03T00:32:11;8.93;;;3.77;;
6987;SDS011;3534;49.960;8.018;2023-04-03T00:34:38;9.10;;;4.80;;
6987;SDS011;3534;49.960;8.018;2023-04-03T00:37:04;16.77;;;5.80;;
6987;SDS011;3534;49.960;8.018;2023-04-03T00:39:32;8.10;;;3.47;;
6987;SDS011;3534;49.960;8.018;2023-04-03T00:41:59;6.30;;;3.17;;
6987;SDS011;3534;49.960;8.018;2023-04-03T00:47:26;3.87;;;2.87;;
6987;SDS011;3534;49.960;8.018;2023-04-03T00:49:54;3.33;;;2.53;;
6987;SDS011;3534;49.960;8.018;2023-04-03T00:52:21;3.83;;;2.73;;
6987;SDS011;3534;49.960;8.018;2023-04-03T00:54:54;5.17;;;2.73;;
6987;SDS011;3534;49.960;8.018;2023-04-03T00:57:24;3.80;;;2.20;;
6987;SDS011;3534;49.960;8.018;2023-04-03T00:59:53;4.70;;;2.40;;
6987;SDS011;3534;49.960;8.018;2023-04-03T01:02:23;2.73;;;2.00;;
6987;SDS011;3534;49.960;8.018;2023-04-03T01:04:50;2.43;;;2.20;;
6987;SDS011;3534;49.960;8.018;2023-04-03T01:07:17;1.87;;;1.73;;
6987;SDS011;3534;49.960;8.018;2023-04-03T01:09:46;3.40;;;1.90;;
6987;SDS011;3534;49.960;8.018;2023-04-03T01:12:16;2.20;;;2.00;;
6987;SDS011;3534;49.960;8.018;2023-04-03T01:14:45;3.33;;;2.40;;
6987;SDS011;3534;49.960;8.018;2023-04-03T01:17:33;3.80;;;2.10;;
6987;SDS011;3534;49.960;8.018;2023-04-03T01:23:24;3.13;;;1.90;;
6987;SDS011;3534;49.960;8.018;2023-04-03T01:25:56;3.40;;;1.97;;
6987;SDS011;3534;49.960;8.018;2023-04-03T01:28:25;4.17;;;1.90;;
6987;SDS011;3534;49.960;8.018;2023-04-03T01:30:56;3.43;;;1.60;;
6987;SDS011;3534;49.960;8.018;2023-04-03T01:33:30;4.23;;;2.07;;
6987;SDS011;3534;49.960;8.018;2023-04-03T01:35:56;3.20;;;1.90;;
6987;SDS011;3534;49.960;8.018;2023-04-03T01:38:23;9.07;;;2.20;;
6987;SDS011;3534;49.960;8.018;2023-04-03T01:40:50;4.70;;;1.90;;
6987;SDS011;3534;49.960;8.018;2023-04-03T01:43:17;6.77;;;2.50;;
6987;SDS011;3534;49.960;8.018;2023-04-03T01:45:43;1.97;;;1.80;;
6987;SDS011;3534;49.960;8.018;2023-04-03T01:48:11;6.97;;;2.50;;
6987;SDS011;3534;49.960;8.018;2023-04-03T01:50:39;3.17;;;2.30;;
6987;SDS011;3534;49.960;8.018;2023-04-03T01:53:06;2.37;;;2.17;;
6987;SDS011;3534;49.960;8.018;2023-04-03T01:55:33;1.80;;;1.70;;
6987;SDS011;3534;49.960;8.018;2023-04-03T01:57:59;2.13;;;1.90;;
6987;SDS011;3534;49.960;8.018;2023-04-03T02:00:26;4.93;;;2.10;;
6987;SDS011;3534;49.960;8.018;2023-04-03T02:02:53;5.03;;;2.00;;
6987;SDS011;3534;49.960;8.018;2023-04-03T02:05:20;1.70;;;1.60;;
6987;SDS011;3534;49.960;8.018;2023-04-03T02:07:48;1.97;;;1.70;;
6987;SDS011;3534;49.960;8.018;2023-04-03T02:10:15;3.43;;;2.20;;
6987;SDS011;3534;49.960;8.018;2023-04-03T02:12:41;1.50;;;1.40;;
6987;SDS011;3534;49.960;8.018;2023-04-03T02:15:08;2.50;;;1.63;;
6987;SDS011;3534;49.960;8.018;2023-04-03T02:17:35;5.27;;;2.20;;
6987;SDS011;3534;49.960;8.018;2023-04-03T02:20:02;2.33;;;1.27;;
6987;SDS011;3534;49.960;8.018;2023-04-03T02:22:30;5.40;;;1.50;;
6987;SDS011;3534;49.960;8.018;2023-04-03T02:24:58;4.10;;;1.03;;
6987;SDS011;3534;49.960;8.018;2023-04-03T02:27:25;5.90;;;1.40;;
6987;SDS011;3534;49.960;8.018;2023-04-03T02:29:52;1.30;;;1.20;;
6987;SDS011;3534;49.960;8.018;2023-04-03T02:32:18;8.50;;;1.50;;
6987;SDS011;3534;49.960;8.018;2023-04-03T02:34:45;1.57;;;1.30;;
6987;SDS011;3534;49.960;8.018;2023-04-03T02:37:12;3.70;;;1.37;;
6987;SDS011;3534;49.960;8.018;2023-04-03T02:39:38;6.10;;;1.90;;
6987;SDS011;3534;49.960;8.018;2023-04-03T02:42:06;3.50;;;1.40;;
6987;SDS011;3534;49.960;8.018;2023-04-03T02:44:33;2.80;;;1.37;;
6987;SDS011;3534;49.960;8.018;2023-04-03T02:47:00;3.27;;;1.13;;
6987;SDS011;3534;49.960;8.018;2023-04-03T02:49:27;3.80;;;1.10;;
6987;SDS011;3534;49.960;8.018;2023-04-03T02:51:54;2.10;;;0.97;;
6987;SDS011;3534;49.960;8.018;2023-04-03T02:54:20;1.50;;;1.23;;
6987;SDS011;3534;49.960;8.018;2023-04-03T02:56:48;6.83;;;1.33;;
6987;SDS011;3534;49.960;8.018;2023-04-03T02:59:16;3.77;;;1.33;;
6987;SDS011;3534;49.960;8.018;2023-04-03T03:01:42;3.40;;;1.50;;
6987;SDS011;3534;49.960;8.018;2023-04-03T03:04:09;2.77;;;1.70;;
6987;SDS011;3534;49.960;8.018;2023-04-03T03:06:36;3.27;;;1.20;;
6987;SDS011;3534;49.960;8.018;2023-04-03T03:09:02;1.50;;;1.40;;
6987;SDS011;3534;49.960;8.018;2023-04-03T03:11:30;3.60;;;1.07;;
6987;SDS011;3534;49.960;8.018;2023-04-03T03:13:57;6.07;;;1.13;;
6987;SDS011;3534;49.960;8.018;2023-04-03T03:16:25;4.27;;;1.27;;
6987;SDS011;3534;49.960;8.018;2023-04-03T03:18:52;5.37;;;1.13;;
6987;SDS011;3534;49.960;8.018;2023-04-03T03:21:19;4.63;;;1.93;;
6987;SDS011;3534;49.960;8.018;2023-04-03T03:23:45;2.60;;;1.50;;
6987;SDS011;3534;49.960;8.018;2023-04-03T03:26:12;1.80;;;1.53;;
6987;SDS011;3534;49.960;8.018;2023-04-03T03:28:39;1.27;;;1.10;;
6987;SDS011;3534;49.960;8.018;2023-04-03T03:31:06;6.10;;;1.57;;
6987;SDS011;3534;49.960;8.018;2023-04-03T03:33:38;3.17;;;1.40;;
6987;SDS011;3534;49.960;8.018;2023-04-03T03:36:05;2.53;;;1.33;;
6987;SDS011;3534;49.960;8.018;2023-04-03T03:38:32;2.73;;;1.27;;
6987;SDS011;3534;49.960;8.018;2023-04-03T03:40:59;1.90;;;1.07;;
6987;SDS011;3534;49.960;8.018;2023-04-03T03:43:26;2.20;;;1.10;;
6987;SDS011;3534;49.960;8.018;2023-04-03T03:45:53;1.70;;;0.93;;
6987;SDS011;3534;49.960;8.018;2023-04-03T03:48:20;1.40;;;1.27;;
6987;SDS011;3534;49.960;8.018;2023-04-03T03:50:49;3.03;;;1.37;;
6987;SDS011;3534;49.960;8.018;2023-04-03T03:53:16;2.33;;;1.33;;
6987;SDS011;3534;49.960;8.018;2023-04-03T03:55:42;3.27;;;1.30;;
6987;SDS011;3534;49.960;8.018;2023-04-03T03:58:09;2.13;;;1.33;;
6987;SDS011;3534;49.960;8.018;2023-04-03T04:00:36;5.90;;;1.23;;
6987;SDS011;3534;49.960;8.018;2023-04-03T04:03:03;1.47;;;1.20;;
6987;SDS011;3534;49.960;8.018;2023-04-03T04:05:29;3.40;;;1.40;;
6987;SDS011;3534;49.960;8.018;2023-04-03T04:07:57;10.23;;;1.63;;
6987;SDS011;3534;49.960;8.018;2023-04-03T04:10:24;2.50;;;1.47;;
6987;SDS011;3534;49.960;8.018;2023-04-03T04:12:51;4.27;;;1.40;;
6987;SDS011;3534;49.960;8.018;2023-04-03T04:15:17;2.87;;;1.17;;
6987;SDS011;3534;49.960;8.018;2023-04-03T04:17:46;3.57;;;1.40;;
6987;SDS011;3534;49.960;8.018;2023-04-03T04:20:13;2.30;;;1.80;;
6987;SDS011;3534;49.960;8.018;2023-04-03T04:22:40;3.73;;;1.43;;
6987;SDS011;3534;49.960;8.018;2023-04-03T04:25:08;8.83;;;1.63;;
6987;SDS011;3534;49.960;8.018;2023-04-03T04:27:34;4.40;;;1.50;;
6987;SDS011;3534;49.960;8.018;2023-04-03T04:30:02;2.53;;;1.40;;
6987;SDS011;3534;49.960;8.018;2023-04-03T04:32:29;1.53;;;1.30;;
6987;SDS011;3534;49.960;8.018;2023-04-03T04:34:56;1.90;;;1.33;;
6987;SDS011;3534;49.960;8.018;2023-04-03T04:37:22;7.83;;;1.67;;
6987;SDS011;3534;49.960;8.018;2023-04-03T04:39:49;5.80;;;1.87;;
6987;SDS011;3534;49.960;8.018;2023-04-03T04:42:17;4.43;;;1.90;;
6987;SDS011;3534;49.960;8.018;2023-04-03T04:44:44;3.60;;;1.30;;
6987;SDS011;3534;49.960;8.018;2023-04-03T04:47:10;2.80;;;1.60;;
6987;SDS011;3534;49.960;8.018;2023-04-03T04:49:37;6.67;;;1.40;;
6987;SDS011;3534;49.960;8.018;2023-04-03T04:52:04;3.73;;;1.50;;
6987;SDS011;3534;49.960;8.018;2023-04-03T04:54:31;4.83;;;1.40;;
6987;SDS011;3534;49.960;8.018;2023-04-03T04:56:58;3.30;;;2.10;;
6987;SDS011;3534;49.960;8.018;2023-04-03T04:59:26;2.90;;;1.50;;
6987;SDS011;3534;49.960;8.018;2023-04-03T05:01:52;3.60;;;1.50;;
6987;SDS011;3534;49.960;8.018;2023-04-03T05:04:19;1.67;;;0.80;;
6987;SDS011;3534;49.960;8.018;2023-04-03T05:06:46;4.00;;;1.27;;
6987;SDS011;3534;49.960;8.018;2023-04-03T05:09:12;3.00;;;1.13;;
6987;SDS011;3534;49.960;8.018;2023-04-03T05:11:39;4.77;;;1.10;;
6987;SDS011;3534;49.960;8.018;2023-04-03T05:14:06;3.47;;;1.53;;
6987;SDS011;3534;49.960;8.018;2023-04-03T05:16:34;2.83;;;1.50;;
6987;SDS011;3534;49.960;8.018;2023-04-03T05:19:01;7.20;;;1.37;;
6987;SDS011;3534;49.960;8.018;2023-04-03T05:21:27;3.17;;;1.00;;
6987;SDS011;3534;49.960;8.018;2023-04-03T05:23:57;13.90;;;5.60;;
6987;SDS011;3534;49.960;8.018;2023-04-03T05:26:24;9.23;;;2.40;;
6987;SDS011;3534;49.960;8.018;2023-04-03T05:28:51;3.70;;;0.93;;
6987;SDS011;3534;49.960;8.018;2023-04-03T05:31:18;5.70;;;1.53;;
6987;SDS011;3534;49.960;8.018;2023-04-03T05:33:46;4.30;;;1.57;;
6987;SDS011;3534;49.960;8.018;2023-04-03T05:36:14;4.73;;;1.37;;
6987;SDS011;3534;49.960;8.018;2023-04-03T05:38:40;3.50;;;1.33;;
6987;SDS011;3534;49.960;8.018;2023-04-03T05:41:07;3.37;;;1.10;;
6987;SDS011;3534;49.960;8.018;2023-04-03T05:43:34;2.33;;;1.50;;
6987;SDS011;3534;49.960;8.018;2023-04-03T05:46:02;3.33;;;1.20;;
6987;SDS011;3534;49.960;8.018;2023-04-03T05:48:29;8.20;;;1.73;;
6987;SDS011;3534;49.960;8.018;2023-04-03T05:50:57;4.03;;;1.30;;
6987;SDS011;3534;49.960;8.018;2023-04-03T05:53:25;7.83;;;2.30;;
6987;SDS011;3534;49.960;8.018;2023-04-03T05:55:54;3.97;;;1.93;;
6987;SDS011;3534;49.960;8.018;2023-04-03T05:58:20;3.60;;;1.40;;
6987;SDS011;3534;49.960;8.018;2023-04-03T06:00:47;2.47;;;1.30;;
6987;SDS011;3534;49.960;8.018;2023-04-03T06:03:14;3.50;;;1.13;;
6987;SDS011;3534;49.960;8.018;2023-04-03T06:05:41;9.40;;;1.93;;
6987;SDS011;3534;49.960;8.018;2023-04-03T06:08:09;3.50;;;1.40;;
6987;SDS011;3534;49.960;8.018;2023-04-03T06:10:36;3.30;;;1.53;;
6987;SDS011;3534;49.960;8.018;2023-04-03T06:13:03;2.60;;;1.43;;
6987;SDS011;3534;49.960;8.018;2023-04-03T06:15:30;3.17;;;1.20;;
6987;SDS011;3534;49.960;8.018;2023-04-03T06:17:56;5.83;;;1.40;;
6987;SDS011;3534;49.960;8.018;2023-04-03T06:20:23;5.53;;;1.73;;
6987;SDS011;3534;49.960;8.018;2023-04-03T06:22:49;4.90;;;1.87;;
6987;SDS011;3534;49.960;8.018;2023-04-03T06:25:17;3.30;;;1.50;;
6987;SDS011;3534;49.960;8.018;2023-04-03T06:27:44;6.70;;;1.67;;
6987;SDS011;3534;49.960;8.018;2023-04-03T06:30:11;3.77;;;1.60;;
6987;SDS011;3534;49.960;8.018;2023-04-03T06:32:38;4.70;;;1.50;;
6987;SDS011;3534;49.960;8.018;2023-04-03T06:35:05;6.67;;;1.63;;
6987;SDS011;3534;49.960;8.018;2023-04-03T06:37:33;4.23;;;1.93;;
6987;SDS011;3534;49.960;8.018;2023-04-03T06:40:00;2.37;;;1.40;;
6987;SDS011;3534;49.960;8.018;2023-04-03T06:42:29;7.13;;;1.40;;
6987;SDS011;3534;49.960;8.018;2023-04-03T06:44:56;4.47;;;1.27;;
6987;SDS011;3534;49.960;8.018;2023-04-03T06:47:22;5.23;;;1.40;;
6987;SDS011;3534;49.960;8.018;2023-04-03T06:49:49;5.97;;;1.23;;
6987;SDS011;3534;49.960;8.018;2023-04-03T06:52:16;3.10;;;1.67;;
6987;SDS011;3534;49.960;8.018;2023-04-03T06:54:42;3.03;;;1.70;;
6987;SDS011;3534;49.960;8.018;2023-04-03T06:57:09;2.73;;;1.90;;
6987;SDS011;3534;49.960;8.018;2023-04-03T06:59:37;1.50;;;1.37;;
6987;SDS011;3534;49.960;8.018;2023-04-03T07:02:05;4.70;;;1.90;;
6987;SDS011;3534;49.960;8.018;2023-04-03T07:04:32;7.60;;;2.20;;
6987;SDS011;3534;49.960;8.018;2023-04-03T07:06:59;1.50;;;1.40;;
6987;SDS011;3534;49.960;8.018;2023-04-03T07:09:26;2.50;;;1.40;;
6987;SDS011;3534;49.960;8.018;2023-04-03T07:11:52;4.10;;;1.30;;
6987;SDS011;3534;49.960;8.018;2023-04-03T07:14:19;5.33;;;1.40;;
6987;SDS011;3534;49.960;8.018;2023-04-03T07:16:47;4.40;;;1.20;;
6987;SDS011;3534;49.960;8.018;2023-04-03T07:19:14;2.90;;;1.30;;
6987;SDS011;3534;49.960;8.018;2023-04-03T07:21:42;1.60;;;1.30;;
6987;SDS011;3534;49.960;8.018;2023-04-03T07:24:09;2.03;;;1.30;;
6987;SDS011;3534;49.960;8.018;2023-04-03T07:26:36;4.83;;;1.27;;
6987;SDS011;3534;49.960;8.018;2023-04-03T07:29:03;8.63;;;1.40;;
6987;SDS011;3534;49.960;8.018;2023-04-03T07:31:30;4.37;;;1.60;;
6987;SDS011;3534;49.960;8.018;2023-04-03T07:33:58;4.60;;;1.50;;
6987;SDS011;3534;49.960;8.018;2023-04-03T07:36:24;2.27;;;1.30;;
6987;SDS011;3534;49.960;8.018;2023-04-03T07:38:51;5.20;;;1.30;;
6987;SDS011;3534;49.960;8.018;2023-04-03T07:41:18;1.20;;;0.80;;
6987;SDS011;3534;49.960;8.018;2023-04-03T07:43:47;2.40;;;0.90;;
6987;SDS011;3534;49.960;8.018;2023-04-03T07:46:15;2.57;;;1.20;;
6987;SDS011;3534;49.960;8.018;2023-04-03T07:48:42;3.77;;;0.97;;
6987;SDS011;3534;49.960;8.018;2023-04-03T07:51:11;7.70;;;1.70;;
6987;SDS011;3534;49.960;8.018;2023-04-03T07:53:39;1.77;;;1.00;;
6987;SDS011;3534;49.960;8.018;2023-04-03T07:56:05;4.53;;;1.33;;
6987;SDS011;3534;49.960;8.018;2023-04-03T07:58:32;6.90;;;1.27;;
6987;SDS011;3534;49.960;8.018;2023-04-03T08:00:59;3.53;;;1.40;;
6987;SDS011;3534;49.960;8.018;2023-04-03T08:03:26;5.30;;;1.90;;
6987;SDS011;3534;49.960;8.018;2023-04-03T08:05:53;6.20;;;1.97;;
6987;SDS011;3534;49.960;8.018;2023-04-03T08:08:21;3.47;;;1.47;;
6987;SDS011;3534;49.960;8.018;2023-04-03T08:10:49;5.70;;;1.63;;
6987;SDS011;3534;49.960;8.018;2023-04-03T08:13:17;3.90;;;1.30;;
6987;SDS011;3534;49.960;8.018;2023-04-03T08:15:44;6.43;;;1.83;;
6987;SDS011;3534;49.960;8.018;2023-04-03T08:18:11;4.73;;;1.07;;
6987;SDS011;3534;49.960;8.018;2023-04-03T08:20:38;1.63;;;1.53;;
6987;SDS011;3534;49.960;8.018;2023-04-03T08:23:06;2.77;;;1.40;;
6987;SDS011;3534;49.960;8.018;2023-04-03T08:25:37;1.20;;;1.00;;
6987;SDS011;3534;49.960;8.018;2023-04-03T08:28:03;2.50;;;1.30;;
6987;SDS011;3534;49.960;8.018;2023-04-03T08:30:31;7.40;;;1.50;;
6987;SDS011;3534;49.960;8.018;2023-04-03T08:32:59;3.53;;;1.30;;
6987;SDS011;3534;49.960;8.018;2023-04-03T08:35:26;4.50;;;1.50;;
6987;SDS011;3534;49.960;8.018;2023-04-03T08:37:53;3.50;;;1.60;;
6987;SDS011;3534;49.960;8.018;2023-04-03T08:40:20;3.90;;;1.63;;
6987;SDS011;3534;49.960;8.018;2023-04-03T08:42:51;5.13;;;1.77;;
6987;SDS011;3534;49.960;8.018;2023-04-03T08:45:26;5.23;;;1.30;;
6987;SDS011;3534;49.960;8.018;2023-04-03T08:48:02;3.33;;;1.30;;
6987;SDS011;3534;49.960;8.018;2023-04-03T08:50:33;1.47;;;1.33;;
6987;SDS011;3534;49.960;8.018;2023-04-03T08:53:06;2.70;;;1.20;;
6987;SDS011;3534;49.960;8.018;2023-04-03T08:55:40;3.27;;;1.07;;
6987;SDS011;3534;49.960;8.018;2023-04-03T08:58:12;4.90;;;2.00;;
6987;SDS011;3534;49.960;8.018;2023-04-03T09:00:43;2.23;;;0.90;;
6987;SDS011;3534;49.960;8.018;2023-04-03T09:03:11;4.57;;;1.20;;
6987;SDS011;3534;49.960;8.018;2023-04-03T09:05:41;7.60;;;1.43;;
6987;SDS011;3534;49.960;8.018;2023-04-03T09:08:14;5.57;;;1.23;;
6987;SDS011;3534;49.960;8.018;2023-04-03T09:10:48;2.03;;;1.10;;
6987;SDS011;3534;49.960;8.018;2023-04-03T09:13:22;3.23;;;1.00;;
6987;SDS011;3534;49.960;8.018;2023-04-03T09:15:54;1.73;;;1.00;;
6987;SDS011;3534;49.960;8.018;2023-04-03T09:18:23;3.60;;;1.23;;
6987;SDS011;3534;49.960;8.018;2023-04-03T09:20:58;8.77;;;1.70;;
6987;SDS011;3534;49.960;8.018;2023-04-03T09:23:34;2.27;;;0.97;;
6987;SDS011;3534;49.960;8.018;2023-04-03T09:26:09;2.60;;;1.50;;
6987;SDS011;3534;49.960;8.018;2023-04-03T09:28:41;5.63;;;1.47;;
6987;SDS011;3534;49.960;8.018;2023-04-03T09:31:14;3.50;;;1.40;;
6987;SDS011;3534;49.960;8.018;2023-04-03T09:33:44;2.43;;;1.10;;
6987;SDS011;3534;49.960;8.018;2023-04-03T09:36:12;10.73;;;1.30;;
6987;SDS011;3534;49.960;8.018;2023-04-03T09:38:38;9.53;;;1.30;;
6987;SDS011;3534;49.960;8.018;2023-04-03T09:41:06;2.73;;;1.37;;
6987;SDS011;3534;49.960;8.018;2023-04-03T09:43:34;3.17;;;1.43;;
6987;SDS011;3534;49.960;8.018;2023-04-03T09:46:17;1.80;;;0.97;;
6987;SDS011;3534;49.960;8.018;2023-04-03T09:48:51;2.20;;;1.10;;
6987;SDS011;3534;49.960;8.018;2023-04-03T09:51:23;3.10;;;1.50;;
6987;SDS011;3534;49.960;8.018;2023-04-03T09:53:52;5.93;;;1.50;;
6987;SDS011;3534;49.960;8.018;2023-04-03T09:56:21;2.30;;;1.37;;
6987;SDS011;3534;49.960;8.018;2023-04-03T09:58:51;1.77;;;1.00;;
6987;SDS011;3534;49.960;8.018;2023-04-03T10:01:34;3.97;;;1.03;;
6987;SDS011;3534;49.960;8.018;2023-04-03T10:04:03;6.97;;;1.43;;
6987;SDS011;3534;49.960;8.018;2023-04-03T10:06:33;2.63;;;1.20;;
6987;SDS011;3534;49.960;8.018;2023-04-03T10:09:02;4.30;;;1.70;;
6987;SDS011;3534;49.960;8.018;2023-04-03T10:11:32;6.73;;;1.20;;
6987;SDS011;3534;49.960;8.018;2023-04-03T10:14:00;2.20;;;1.30;;
6987;SDS011;3534;49.960;8.018;2023-04-03T10:16:32;1.13;;;1.10;;
6987;SDS011;3534;49.960;8.018;2023-04-03T10:19:11;3.47;;;1.27;;
6987;SDS011;3534;49.960;8.018;2023-04-03T10:21:50;1.63;;;1.50;;
6987;SDS011;3534;49.960;8.018;2023-04-03T10:24:23;14.60;;;1.80;;
6987;SDS011;3534;49.960;8.018;2023-04-03T10:26:56;5.70;;;1.53;;
6987;SDS011;3534;49.960;8.018;2023-04-03T10:29:36;6.77;;;1.97;;
6987;SDS011;3534;49.960;8.018;2023-04-03T10:32:20;4.00;;;1.80;;
6987;SDS011;3534;49.960;8.018;2023-04-03T10:34:57;4.47;;;1.40;;
6987;SDS011;3534;49.960;8.018;2023-04-03T10:37:34;5.70;;;1.70;;
6987;SDS011;3534;49.960;8.018;2023-04-03T10:40:17;5.07;;;1.90;;
6987;SDS011;3534;49.960;8.018;2023-04-03T10:42:53;3.40;;;1.90;;
6987;SDS011;3534;49.960;8.018;2023-04-03T10:45:28;5.20;;;1.83;;
6987;SDS011;3534;49.960;8.018;2023-04-03T10:48:07;2.07;;;1.80;;
6987;SDS011;3534;49.960;8.018;2023-04-03T10:50:41;1.80;;;1.43;;
6987;SDS011;3534;49.960;8.018;2023-04-03T10:53:17;2.83;;;1.60;;
6987;SDS011;3534;49.960;8.018;2023-04-03T10:55:51;3.30;;;1.37;;
6987;SDS011;3534;49.960;8.018;2023-04-03T10:58:25;6.47;;;1.73;;
6987;SDS011;3534;49.960;8.018;2023-04-03T11:00:57;4.27;;;1.80;;
6987;SDS011;3534;49.960;8.018;2023-04-03T11:03:31;3.77;;;2.30;;
6987;SDS011;3534;49.960;8.018;2023-04-03T11:06:02;5.10;;;1.70;;
6987;SDS011;3534;49.960;8.018;2023-04-03T11:08:34;4.87;;;1.80;;
6987;SDS011;3534;49.960;8.018;2023-04-03T11:11:05;7.63;;;1.87;;
6987;SDS011;3534;49.960;8.018;2023-04-03T11:13:36;6.30;;;1.87;;
6987;SDS011;3534;49.960;8.018;2023-04-03T11:16:07;2.43;;;1.97;;
6987;SDS011;3534;49.960;8.018;2023-04-03T11:18:37;3.70;;;1.57;;
6987;SDS011;3534;49.960;8.018;2023-04-03T11:21:11;6.47;;;1.50;;
6987;SDS011;3534;49.960;8.018;2023-04-03T11:23:44;2.60;;;1.63;;
6987;SDS011;3534;49.960;8.018;2023-04-03T11:26:13;3.83;;;1.80;;
6987;SDS011;3534;49.960;8.018;2023-04-03T11:28:42;2.30;;;1.20;;
6987;SDS011;3534;49.960;8.018;2023-04-03T11:31:12;3.43;;;1.70;;
6987;SDS011;3534;49.960;8.018;2023-04-03T11:33:52;1.63;;;1.53;;
6987;SDS011;3534;49.960;8.018;2023-04-03T11:36:30;3.07;;;1.83;;
6987;SDS011;3534;49.960;8.018;2023-04-03T11:39:00;4.00;;;1.50;;
6987;SDS011;3534;49.960;8.018;2023-04-03T11:41:33;4.53;;;2.00;;
6987;SDS011;3534;49.960;8.018;2023-04-03T11:44:02;6.37;;;1.97;;
6987;SDS011;3534;49.960;8.018;2023-04-03T11:46:49;3.83;;;1.50;;
6987;SDS011;3534;49.960;8.018;2023-04-03T11:55:56;3.00;;;1.50;;
6987;SDS011;3534;49.960;8.018;2023-04-03T11:58:25;6.07;;;1.80;;
6987;SDS011;3534;49.960;8.018;2023-04-03T12:00:54;2.57;;;1.33;;
6987;SDS011;3534;49.960;8.018;2023-04-03T12:12:40;3.20;;;1.57;;
6987;SDS011;3534;49.960;8.018;2023-04-03T12:21:06;6.70;;;1.90;;
6987;SDS011;3534;49.960;8.018;2023-04-03T12:23:34;6.63;;;1.80;;
6987;SDS011;3534;49.960;8.018;2023-04-03T12:26:06;5.70;;;1.73;;
6987;SDS011;3534;49.960;8.018;2023-04-03T12:28:47;8.07;;;2.27;;
6987;SDS011;3534;49.960;8.018;2023-04-03T12:31:15;3.80;;;1.40;;
6987;SDS011;3534;49.960;8.018;2023-04-03T12:33:47;5.63;;;1.70;;
6987;SDS011;3534;49.960;8.018;2023-04-03T12:36:30;2.33;;;2.00;;
6987;SDS011;3534;49.960;8.018;2023-04-03T12:39:06;4.83;;;1.40;;
6987;SDS011;3534;49.960;8.018;2023-04-03T12:41:45;2.77;;;1.50;;
6987;SDS011;3534;49.960;8.018;2023-04-03T12:44:27;4.33;;;2.00;;
6987;SDS011;3534;49.960;8.018;2023-04-03T12:47:10;3.00;;;1.27;;
6987;SDS011;3534;49.960;8.018;2023-04-03T12:49:49;4.33;;;1.80;;
6987;SDS011;3534;49.960;8.018;2023-04-03T12:52:19;3.20;;;1.17;;
6987;SDS011;3534;49.960;8.018;2023-04-03T12:54:54;4.77;;;1.77;;
6987;SDS011;3534;49.960;8.018;2023-04-03T12:57:25;2.67;;;1.87;;
6987;SDS011;3534;49.960;8.018;2023-04-03T12:59:53;4.10;;;1.90;;
6987;SDS011;3534;49.960;8.018;2023-04-03T13:02:21;3.33;;;1.80;;
6987;SDS011;3534;49.960;8.018;2023-04-03T13:04:50;3.10;;;1.80;;
6987;SDS011;3534;49.960;8.018;2023-04-03T13:07:20;4.83;;;1.57;;
6987;SDS011;3534;49.960;8.018;2023-04-03T13:09:57;3.80;;;1.80;;
6987;SDS011;3534;49.960;8.018;2023-04-03T13:12:27;2.23;;;1.50;;
6987;SDS011;3534;49.960;8.018;2023-04-03T13:14:55;3.37;;;1.77;;
6987;SDS011;3534;49.960;8.018;2023-04-03T13:17:23;2.40;;;1.47;;
6987;SDS011;3534;49.960;8.018;2023-04-03T13:19:51;3.40;;;1.77;;
6987;SDS011;3534;49.960;8.018;2023-04-03T13:22:28;2.97;;;1.70;;
6987;SDS011;3534;49.960;8.018;2023-04-03T13:25:04;2.07;;;1.50;;
6987;SDS011;3534;49.960;8.018;2023-04-03T13:27:36;3.57;;;1.50;;
6987;SDS011;3534;49.960;8.018;2023-04-03T13:30:17;2.70;;;1.80;;
6987;SDS011;3534;49.960;8.018;2023-04-03T13:32:49;3.60;;;2.00;;
6987;SDS011;3534;49.960;8.018;2023-04-03T13:35:24;3.33;;;1.70;;
6987;SDS011;3534;49.960;8.018;2023-04-03T13:37:56;3.53;;;1.83;;
6987;SDS011;3534;49.960;8.018;2023-04-03T13:40:24;3.63;;;1.50;;
6987;SDS011;3534;49.960;8.018;2023-04-03T13:43:00;6.63;;;2.80;;
6987;SDS011;3534;49.960;8.018;2023-04-03T13:45:29;2.97;;;1.60;;
6987;SDS011;3534;49.960;8.018;2023-04-03T13:48:08;4.47;;;1.57;;
6987;SDS011;3534;49.960;8.018;2023-04-03T13:50:55;1.80;;;1.40;;
6987;SDS011;3534;49.960;8.018;2023-04-03T13:53:24;5.17;;;1.73;;
6987;SDS011;3534;49.960;8.018;2023-04-03T13:55:54;2.87;;;1.60;;
6987;SDS011;3534;49.960;8.018;2023-04-03T13:58:26;3.23;;;1.93;;
6987;SDS011;3534;49.960;8.018;2023-04-03T14:00:54;3.67;;;1.73;;
6987;SDS011;3534;49.960;8.018;2023-04-03T14:03:23;3.50;;;2.10;;
6987;SDS011;3534;49.960;8.018;2023-04-03T14:05:52;2.83;;;1.90;;
6987;SDS011;3534;49.960;8.018;2023-04-03T14:08:20;3.87;;;1.20;;
6987;SDS011;3534;49.960;8.018;2023-04-03T14:10:47;3.30;;;1.90;;
6987;SDS011;3534;49.960;8.018;2023-04-03T14:13:15;2.23;;;1.70;;
6987;SDS011;3534;49.960;8.018;2023-04-03T14:15:45;4.23;;;1.63;;
6987;SDS011;3534;49.960;8.018;2023-04-03T14:18:16;2.20;;;1.50;;
6987;SDS011;3534;49.960;8.018;2023-04-03T14:20:44;4.83;;;2.30;;
6987;SDS011;3534;49.960;8.018;2023-04-03T14:23:11;2.40;;;1.60;;
6987;SDS011;3534;49.960;8.018;2023-04-03T14:25:39;2.03;;;1.60;;
6987;SDS011;3534;49.960;8.018;2023-04-03T14:28:12;3.97;;;1.60;;
6987;SDS011;3534;49.960;8.018;2023-04-03T14:30:42;1.70;;;1.20;;
6987;SDS011;3534;49.960;8.018;2023-04-03T14:33:11;3.87;;;2.10;;
6987;SDS011;3534;49.960;8.018;2023-04-03T14:35:40;2.30;;;1.40;;
6987;SDS011;3534;49.960;8.018;2023-04-03T14:38:11;7.53;;;1.63;;
6987;SDS011;3534;49.960;8.018;2023-04-03T14:40:46;2.03;;;1.40;;
6987;SDS011;3534;49.960;8.018;2023-04-03T14:43:12;1.73;;;1.23;;
6987;SDS011;3534;49.960;8.018;2023-04-03T14:45:40;3.10;;;1.50;;
6987;SDS011;3534;49.960;8.018;2023-04-03T14:48:09;1.60;;;1.20;;
6987;SDS011;3534;49.960;8.018;2023-04-03T14:50:38;3.70;;;1.73;;
6987;SDS011;3534;49.960;8.018;2023-04-03T14:53:05;2.63;;;1.50;;
6987;SDS011;3534;49.960;8.018;2023-04-03T14:55:32;2.77;;;1.80;;
6987;SDS011;3534;49.960;8.018;2023-04-03T14:58:00;3.90;;;1.67;;
6987;SDS011;3534;49.960;8.018;2023-04-03T15:00:27;4.40;;;1.90;;
6987;SDS011;3534;49.960;8.018;2023-04-03T15:02:53;2.00;;;1.60;;
6987;SDS011;3534;49.960;8.018;2023-04-03T15:05:20;3.33;;;1.73;;
6987;SDS011;3534;49.960;8.018;2023-04-03T15:07:49;3.40;;;1.70;;
6987;SDS011;3534;49.960;8.018;2023-04-03T15:10:19;2.90;;;1.60;;
6987;SDS011;3534;49.960;8.018;2023-04-03T15:12:47;2.67;;;1.43;;
6987;SDS011;3534;49.960;8.018;2023-04-03T15:15:15;2.40;;;1.47;;
6987;SDS011;3534;49.960;8.018;2023-04-03T15:17:44;2.03;;;1.70;;
6987;SDS011;3534;49.960;8.018;2023-04-03T15:20:14;2.80;;;1.40;;
6987;SDS011;3534;49.960;8.018;2023-04-03T15:22:42;2.40;;;1.97;;
6987;SDS011;3534;49.960;8.018;2023-04-03T15:25:10;2.40;;;1.20;;
6987;SDS011;3534;49.960;8.018;2023-04-03T15:27:37;2.60;;;1.50;;
6987;SDS011;3534;49.960;8.018;2023-04-03T15:30:05;5.90;;;1.73;;
6987;SDS011;3534;49.960;8.018;2023-04-03T15:32:34;5.40;;;1.53;;
6987;SDS011;3534;49.960;8.018;2023-04-03T15:35:01;3.13;;;1.50;;
6987;SDS011;3534;49.960;8.018;2023-04-03T15:37:28;2.73;;;1.90;;
6987;SDS011;3534;49.960;8.018;2023-04-03T15:39:54;4.37;;;1.60;;
6987;SDS011;3534;49.960;8.018;2023-04-03T15:42:23;2.93;;;1.60;;
6987;SDS011;3534;49.960;8.018;2023-04-03T15:44:49;4.20;;;1.50;;
6987;SDS011;3534;49.960;8.018;2023-04-03T15:47:16;3.47;;;1.77;;
6987;SDS011;3534;49.960;8.018;2023-04-03T15:49:43;3.07;;;1.63;;
6987;SDS011;3534;49.960;8.018;2023-04-03T15:52:09;2.17;;;1.53;;
6987;SDS011;3534;49.960;8.018;2023-04-03T15:54:36;4.87;;;1.70;;